Список аэропортов
Фактическая погода:

18 октября, 10:00
Температура: +17°C (+17.0*)
Ветер: 0
Давление: *762 мм
Без существ. явл.
Время (МСК)Темп. СВетерВлажностьДавлениеОблачностьОсадки
09:00+14С, 1 м/с69%1018 гПаясно
10:00+17Штиль 61%1017 гПаясно
11:00+20Штиль 53%1017 гПаясно
12:00+22Ю, 1 м/с46%1017 гПаясно
13:00+23Ю, 1 м/с42%1016 гПаясно
14:00+24Ю, 1 м/с40%1016 гПамалооблачно
15:00+25Ю, 2 м/с39%1015 гПас прояснениями
16:00+25Ю, 2 м/с39%1015 гПаясно
17:00+25ЮВ, 1 м/с36%1015 гПаясно
18:00+24ЮВ, 2 м/с43%1015 гПамалооблачно
19:00+22ЮВ, 1 м/с58%1015 гПас прояснениями
20:00+20В, 1 м/с65%1016 гПаоблачно
21:00+20СВ, 1 м/с69%1016 гПаоблачно
22:00+20С, 1 м/с71%1016 гПаоблачно
23:00+19С, 1 м/с72%1017 гПаоблачно
19 октября
00:00+18СЗ, 1 м/с74%1017 гПаоблачно
01:00+17СЗ, 1 м/с75%1017 гПаоблачно
02:00+16СЗ, 1 м/с76%1017 гПамалооблачно
03:00+16Штиль 78%1017 гПас прояснениями
04:00+15С, 1 м/с79%1017 гПамалооблачно
05:00+15СЗ, 1 м/с80%1017 гПамалооблачно
06:00+15С, 1 м/с80%1017 гПас прояснениями
07:00+14С, 1 м/с80%1017 гПамалооблачно
08:00+14С, 1 м/с80%1017 гПас прояснениями
09:00+15СЗ, 1 м/с76%1017 гПамалооблачно
10:00+18Штиль 68%1017 гПас прояснениями
11:00+20Ю, 1 м/с57%1017 гПамалооблачно
12:00+22ЮВ, 1 м/с52%1016 гПаоблачно
13:00+23ЮВ, 2 м/с49%1016 гПас прояснениями
14:00+24ЮВ, 2 м/с47%1016 гПаясно
15:00+25ЮВ, 3 м/с44%1016 гПаясно
16:00+25ЮВ, 3 м/с44%1016 гПаясно
17:00+25ЮВ, 3 м/с43%1016 гПаясно
18:00+24ЮВ, 2 м/с49%1016 гПаясно
19:00+22ЮВ, 1 м/с60%1017 гПаясно
20:00+21СВ, 1 м/с66%1017 гПаясно
21:00+20С, 2 м/с71%1018 гПаясно
22:00+19С, 2 м/с69%1018 гПаясно
23:00+19С, 2 м/с67%1019 гПаясно
20 октября
00:00+18С, 2 м/с68%1019 гПаясно
01:00+17С, 2 м/с69%1019 гПаясно
02:00+17С, 2 м/с70%1019 гПаясно
03:00+16С, 2 м/с71%1019 гПаясно
04:00+16СЗ, 2 м/с70%1019 гПаясно
05:00+16СЗ, 2 м/с71%1019 гПаясно
06:00+16СЗ, 2 м/с71%1019 гПас прояснениями
07:00+16СЗ, 2 м/с72%1019 гПамалооблачно
08:00+15СЗ, 2 м/с74%1020 гПамалооблачно
09:00+16СЗ, 2 м/с69%1020 гПамалооблачно